YMA7002 YPKG-YBRM
Flight info
| Callsign | YMA7002 |
|---|---|
| Flight time | N/A |
| Altitude | 28000 |
| Route | KG DCT ASEBU Y31 BRM |
| Aircraft | B738/M-SDE2E3FGHIRWXY/LB1 |
Departure
| Time | 2026-04-18 08:43 |
|---|---|
| Airport | Kalgoorlie Boulder Airport (YPKG) |
Arrival
| Time | N/A |
|---|---|
| Airport | Broome International Airport (YBRM) |
| Time | Latitude | Longitude | Altitude | Speed | Heading |
|---|---|---|---|---|---|
| 2026-04-18 08:22 | -30.78661 | 121.45734 | 1219 ft | 0 kts | 111° |
| 2026-04-18 08:40 | -30.78664 | 121.45744 | 1219 ft | 2 kts | 111° |
| 2026-04-18 08:40 | -30.78698 | 121.45767 | 1218 ft | 8 kts | 182° |
| 2026-04-18 08:41 | -30.78773 | 121.45742 | 1219 ft | 11 kts | 200° |
| 2026-04-18 08:41 | -30.78839 | 121.45712 | 1222 ft | 9 kts | 202° |
| 2026-04-18 08:41 | -30.78889 | 121.45672 | 1224 ft | 12 kts | 249° |
| 2026-04-18 08:41 | -30.78866 | 121.45570 | 1228 ft | 12 kts | 295° |
| 2026-04-18 08:42 | -30.78852 | 121.45485 | 1230 ft | 9 kts | 314° |
| 2026-04-18 08:42 | -30.78842 | 121.45523 | 1229 ft | 10 kts | 124° |
| 2026-04-18 08:42 | -30.78849 | 121.45538 | 1229 ft | 0 kts | 114° |
| 2026-04-18 08:42 | -30.78853 | 121.45548 | 1228 ft | 4 kts | 114° |
| 2026-04-18 08:43 | -30.78927 | 121.45761 | 1222 ft | 67 kts | 111° |
| 2026-04-18 08:43 | -30.79198 | 121.46596 | 1199 ft | 149 kts | 110° |
| 2026-04-18 08:43 | -30.79573 | 121.47897 | 1558 ft | 182 kts | 109° |
| 2026-04-18 08:43 | -30.79893 | 121.49291 | 2462 ft | 187 kts | 108° |
| 2026-04-18 08:44 | -30.80275 | 121.50775 | 3164 ft | 199 kts | 103° |
| 2026-04-18 08:44 | -30.80189 | 121.52427 | 3677 ft | 220 kts | 70° |
| 2026-04-18 08:44 | -30.79258 | 121.53908 | 4231 ft | 240 kts | 37° |
| 2026-04-18 08:44 | -30.77695 | 121.54702 | 4835 ft | 255 kts | 10° |
| 2026-04-18 08:45 | -30.75900 | 121.55001 | 5493 ft | 270 kts | 4° |
| 2026-04-18 08:45 | -30.73994 | 121.55099 | 6205 ft | 281 kts | 359° |
| 2026-04-18 08:45 | -30.71992 | 121.55090 | 6914 ft | 292 kts | 358° |
| 2026-04-18 08:45 | -30.69920 | 121.55085 | 7480 ft | 308 kts | 359° |
| 2026-04-18 08:46 | -30.67708 | 121.55112 | 8027 ft | 325 kts | 359° |
| 2026-04-18 08:46 | -30.65411 | 121.55160 | 8551 ft | 341 kts | 360° |
| 2026-04-18 08:46 | -30.62995 | 121.55224 | 9042 ft | 357 kts | 360° |
| 2026-04-18 08:46 | -30.60445 | 121.55294 | 9495 ft | 374 kts | 360° |
| 2026-04-18 08:47 | -30.57767 | 121.55368 | 9993 ft | 388 kts | 360° |
| 2026-04-18 08:47 | -30.55084 | 121.55444 | 10658 ft | 395 kts | 360° |
| 2026-04-18 08:47 | -30.52322 | 121.55522 | 11433 ft | 398 kts | 359° |
| 2026-04-18 08:47 | -30.49536 | 121.55605 | 12212 ft | 400 kts | 359° |
| 2026-04-18 08:48 | -30.46763 | 121.55681 | 12948 ft | 402 kts | 359° |
| 2026-04-18 08:48 | -30.43943 | 121.55760 | 13688 ft | 405 kts | 358° |